createdAt,value
2023-01-05T00:25:11.232Z,5.53
2023-01-05T00:27:40.451Z,4.50
2023-01-05T00:30:08.631Z,4.60
2023-01-05T00:32:35.477Z,5.33
2023-01-05T00:35:02.642Z,6.10
2023-01-05T00:37:33.529Z,6.25
2023-01-05T00:40:00.469Z,5.97
2023-01-05T00:42:27.437Z,6.03
2023-01-05T00:44:54.628Z,5.72
2023-01-05T00:47:21.485Z,6.13
2023-01-05T00:49:48.530Z,5.28
2023-01-05T00:52:15.453Z,5.35
2023-01-05T00:54:42.336Z,5.68
2023-01-05T00:57:12.628Z,5.45
2023-01-05T00:59:39.532Z,5.10
2023-01-05T01:02:06.491Z,5.20
2023-01-05T01:04:35.961Z,5.90
2023-01-05T01:07:04.367Z,6.05
2023-01-05T01:09:31.472Z,6.53
2023-01-05T01:11:58.573Z,6.50
2023-01-05T01:14:25.502Z,6.35
2023-01-05T01:16:52.426Z,5.80
2023-01-05T01:19:22.413Z,6.10
2023-01-05T01:21:49.641Z,6.53
2023-01-05T01:24:19.738Z,6.50
2023-01-05T01:26:46.962Z,6.45
2023-01-05T01:29:14.527Z,5.82
2023-01-05T01:31:41.369Z,6.40
2023-01-05T01:34:08.124Z,6.65
2023-01-05T01:36:35.083Z,5.93
2023-01-05T01:39:02.000Z,5.93
2023-01-05T01:41:28.843Z,5.88
2023-01-05T01:43:56.849Z,6.40
2023-01-05T01:46:25.326Z,6.38
2023-01-05T01:48:59.860Z,6.68
2023-01-05T01:51:34.596Z,6.38
2023-01-05T01:54:05.362Z,6.37
2023-01-05T01:56:55.084Z,6.80
2023-01-05T01:59:25.270Z,6.22
2023-01-05T02:01:56.319Z,6.70
2023-01-05T02:04:25.356Z,6.55
2023-01-05T02:06:53.506Z,6.38
2023-01-05T02:09:20.454Z,6.07
2023-01-05T02:12:19.557Z,6.63
2023-01-05T02:15:08.207Z,6.13
2023-01-05T02:17:38.131Z,6.15
2023-01-05T02:20:33.945Z,6.63
2023-01-05T02:23:11.320Z,4.97
2023-01-05T02:28:25.795Z,6.03
2023-01-05T02:31:37.845Z,6.07
2023-01-05T02:34:12.012Z,5.77
2023-01-05T02:37:03.851Z,5.17
2023-01-05T02:39:48.593Z,5.70
2023-01-05T02:42:24.393Z,6.27
2023-01-05T02:44:51.826Z,5.40
2023-01-05T02:47:27.993Z,6.20
2023-01-05T02:50:06.945Z,5.90
2023-01-05T02:52:47.656Z,5.03
2023-01-05T02:55:20.041Z,6.40
2023-01-05T02:58:23.729Z,5.87
2023-01-05T03:01:03.742Z,6.30
2023-01-05T03:04:03.063Z,5.07
2023-01-05T03:06:36.959Z,6.10
2023-01-05T03:09:08.268Z,6.07
2023-01-05T03:12:17.267Z,5.73
2023-01-05T03:14:52.306Z,7.20
2023-01-05T03:17:26.729Z,6.03
2023-01-05T03:19:55.602Z,5.43
2023-01-05T03:22:45.995Z,6.87
2023-01-05T03:25:33.913Z,5.87
2023-01-05T03:28:21.227Z,7.00
2023-01-05T03:31:26.371Z,7.37
2023-01-05T03:34:49.362Z,7.97
2023-01-05T03:37:44.835Z,7.23
2023-01-05T03:40:22.946Z,6.47
2023-01-05T03:42:49.992Z,6.23
2023-01-05T03:45:19.068Z,7.93
2023-01-05T03:47:45.944Z,5.70
2023-01-05T03:50:13.178Z,5.90
2023-01-05T03:52:40.166Z,6.80
2023-01-05T03:55:07.648Z,6.40
2023-01-05T03:57:34.734Z,6.57
2023-01-05T04:00:01.678Z,7.40
2023-01-05T04:02:29.081Z,6.33
2023-01-05T04:04:56.052Z,7.23
2023-01-05T04:07:22.891Z,6.50
2023-01-05T04:09:49.934Z,5.90
2023-01-05T04:12:16.765Z,6.70
2023-01-05T04:14:43.684Z,6.50
2023-01-05T04:17:10.639Z,7.17
2023-01-05T04:19:37.485Z,7.10
2023-01-05T04:22:05.043Z,6.83
2023-01-05T04:24:32.058Z,6.53
2023-01-05T04:26:58.899Z,5.63
2023-01-05T04:29:25.745Z,6.67
2023-01-05T04:31:53.132Z,5.40
2023-01-05T04:34:21.074Z,6.07
2023-01-05T04:36:49.475Z,6.13
2023-01-05T04:39:16.671Z,6.03
2023-01-05T04:41:43.532Z,6.77
2023-01-05T04:44:11.512Z,6.53
2023-01-05T04:46:38.367Z,5.77
2023-01-05T04:49:05.411Z,6.90
2023-01-05T04:51:32.401Z,7.47
2023-01-05T04:53:59.200Z,6.23
2023-01-05T04:56:28.689Z,6.20
2023-01-05T04:58:55.509Z,7.67
2023-01-05T05:01:22.495Z,5.93
2023-01-05T05:03:49.397Z,7.37
2023-01-05T05:06:17.563Z,6.30
2023-01-05T05:08:44.437Z,5.70
2023-01-05T05:11:11.974Z,6.40
2023-01-05T05:13:39.011Z,7.23
2023-01-05T05:16:06.354Z,5.87
2023-01-05T05:18:33.352Z,6.97
2023-01-05T05:21:00.244Z,6.03
2023-01-05T05:23:27.122Z,6.93
2023-01-05T05:25:54.274Z,6.77
2023-01-05T05:28:23.319Z,6.93
2023-01-05T05:30:50.619Z,6.90
2023-01-05T05:33:17.519Z,8.47
2023-01-05T05:35:45.367Z,6.87
2023-01-05T05:38:12.245Z,6.13
2023-01-05T05:40:39.087Z,6.63
2023-01-05T05:43:06.088Z,6.17
2023-01-05T05:45:33.271Z,7.63
2023-01-05T05:48:01.502Z,6.90
2023-01-05T05:50:28.636Z,5.80
2023-01-05T05:52:55.468Z,6.23
2023-01-05T05:55:22.720Z,7.53
2023-01-05T05:57:49.800Z,6.00
2023-01-05T06:00:16.996Z,5.80
2023-01-05T06:02:44.222Z,5.60
2023-01-05T06:05:11.188Z,6.60
2023-01-05T06:07:38.059Z,6.03
2023-01-05T06:10:05.407Z,5.97
2023-01-05T06:12:32.733Z,5.50
2023-01-05T06:14:59.946Z,4.57
2023-01-05T06:17:26.945Z,6.40
2023-01-05T06:19:53.879Z,6.43
2023-01-05T06:22:20.702Z,5.63
2023-01-05T06:24:47.529Z,6.20
2023-01-05T06:27:14.323Z,5.47
2023-01-05T06:29:41.159Z,5.70
2023-01-05T06:32:07.997Z,5.83
2023-01-05T06:34:34.832Z,5.50
2023-01-05T06:37:02.551Z,7.13
2023-01-05T06:39:29.703Z,6.50
2023-01-05T06:41:56.576Z,5.97
2023-01-05T06:44:23.536Z,6.27
2023-01-05T06:46:50.336Z,6.90
2023-01-05T06:49:17.279Z,6.37
2023-01-05T06:51:44.215Z,6.50
2023-01-05T06:54:11.411Z,5.20
2023-01-05T06:56:38.289Z,5.63
2023-01-05T06:59:05.167Z,6.13
2023-01-05T07:01:32.227Z,6.10
2023-01-05T07:03:59.259Z,6.47
2023-01-05T07:06:26.174Z,6.57
2023-01-05T07:08:53.355Z,7.13
2023-01-05T07:11:20.221Z,6.43
2023-01-05T07:13:50.706Z,5.30
2023-01-05T07:16:18.291Z,5.27
2023-01-05T07:18:45.536Z,5.67
2023-01-05T07:21:12.426Z,6.10
2023-01-05T07:23:39.331Z,6.07
2023-01-05T07:26:07.955Z,5.73
2023-01-05T07:28:37.107Z,6.43
2023-01-05T07:31:04.855Z,5.67
2023-01-05T07:33:37.533Z,4.83
2023-01-05T07:36:06.527Z,6.53
2023-01-05T07:38:34.844Z,5.87
2023-01-05T07:41:02.536Z,6.30
2023-01-05T07:43:29.877Z,6.30
2023-01-05T07:46:01.370Z,5.67
2023-01-05T07:48:28.580Z,5.83
2023-01-05T07:51:05.673Z,5.53
2023-01-05T07:53:43.520Z,5.93
2023-01-05T07:56:13.505Z,7.13
2023-01-05T07:58:41.195Z,6.60
2023-01-05T08:01:10.593Z,6.87
2023-01-05T08:03:37.728Z,6.00
2023-01-05T08:06:07.912Z,7.20
2023-01-05T08:08:35.166Z,5.17
2023-01-05T08:11:05.326Z,5.90
2023-01-05T08:13:51.050Z,6.60
2023-01-05T08:16:18.459Z,5.77
2023-01-05T08:18:45.537Z,6.07
2023-01-05T08:21:12.917Z,5.57
2023-01-05T08:23:40.178Z,5.93
2023-01-05T08:26:18.024Z,6.73
2023-01-05T08:28:45.502Z,5.97
2023-01-05T08:31:19.511Z,5.27
2023-01-05T08:33:46.507Z,6.07
2023-01-05T08:36:19.914Z,5.00
2023-01-05T08:38:48.807Z,5.20
2023-01-05T08:41:21.617Z,5.40
2023-01-05T08:43:56.638Z,6.30
2023-01-05T08:46:25.710Z,6.03
2023-01-05T08:48:54.782Z,5.80
2023-01-05T08:51:22.454Z,5.90
2023-01-05T08:53:49.729Z,5.60
2023-01-05T08:56:17.134Z,6.23
2023-01-05T08:58:44.661Z,5.70
2023-01-05T09:01:14.169Z,6.10
2023-01-05T09:03:41.826Z,6.07
2023-01-05T09:06:11.993Z,6.17
2023-01-05T09:08:41.914Z,5.10
2023-01-05T09:11:10.259Z,5.77
2023-01-05T09:13:38.223Z,6.37
2023-01-05T09:16:11.388Z,5.83
2023-01-05T09:18:40.317Z,5.80
2023-01-05T09:21:08.074Z,5.37
2023-01-05T09:23:36.761Z,7.17
2023-01-05T09:26:08.416Z,6.93
2023-01-05T09:28:36.543Z,7.43
2023-01-05T09:31:08.416Z,6.43
2023-01-05T09:33:35.318Z,5.80
2023-01-05T09:36:02.186Z,5.27
2023-01-05T09:38:30.523Z,7.00
2023-01-05T09:41:17.042Z,6.27
2023-01-05T09:43:45.853Z,6.33
2023-01-05T09:46:20.798Z,5.77
2023-01-05T09:48:52.492Z,6.20
2023-01-05T09:51:19.602Z,6.63
2023-01-05T09:53:46.810Z,6.87
2023-01-05T09:57:08.545Z,6.83
2023-01-05T09:59:28.492Z,7.17
2023-01-05T10:01:59.312Z,7.20
2023-01-05T10:04:30.997Z,6.07
2023-01-05T10:07:02.766Z,7.50
2023-01-05T10:09:33.467Z,5.73
2023-01-05T10:12:42.937Z,6.33
2023-01-05T10:15:17.471Z,6.90
2023-01-05T10:17:44.934Z,6.73
2023-01-05T10:20:16.602Z,6.43
2023-01-05T10:22:49.063Z,6.00
2023-01-05T10:25:43.047Z,6.80
2023-01-05T10:28:25.739Z,6.93
2023-01-05T10:31:01.586Z,6.57
2023-01-05T10:33:52.513Z,5.87
2023-01-05T10:39:57.354Z,6.53
2023-01-05T10:42:48.863Z,6.10
2023-01-05T10:45:20.684Z,6.50
2023-01-05T10:47:49.903Z,6.77
2023-01-05T10:50:35.754Z,7.13
2023-01-05T10:55:59.104Z,6.63
2023-01-05T10:58:32.515Z,7.40
2023-01-05T11:01:19.530Z,6.20
2023-01-05T11:04:26.491Z,6.13
2023-01-05T11:06:38.226Z,6.53
2023-01-05T11:09:20.268Z,6.03
2023-01-05T11:12:05.608Z,6.47
2023-01-05T11:14:43.717Z,5.80
2023-01-05T11:17:16.864Z,6.73
2023-01-05T11:19:50.301Z,6.83
2023-01-05T11:22:38.246Z,7.07
2023-01-05T11:25:30.946Z,6.07
2023-01-05T11:28:12.229Z,6.50
2023-01-05T11:31:00.295Z,6.67
2023-01-05T11:33:29.404Z,6.90
2023-01-05T11:35:58.772Z,7.97
2023-01-05T11:38:29.729Z,7.78
2023-01-05T11:40:58.595Z,6.80
2023-01-05T11:43:28.944Z,6.20
2023-01-05T11:46:02.593Z,6.27
2023-01-05T12:01:27.949Z,5.53
2023-01-05T12:04:10.030Z,6.80
2023-01-05T12:06:47.903Z,7.47
2023-01-05T12:09:50.239Z,7.73
2023-01-05T12:12:26.272Z,7.33
2023-01-05T12:15:05.256Z,7.57
2023-01-05T12:17:47.115Z,7.33
2023-01-05T12:20:42.898Z,7.60
2023-01-05T12:23:32.347Z,7.23
2023-01-05T12:26:23.802Z,8.37
2023-01-05T12:35:49.996Z,6.73
2023-01-05T12:38:26.926Z,8.13
2023-01-05T12:41:22.616Z,9.17
2023-01-05T12:44:26.759Z,8.77
2023-01-05T12:46:59.467Z,8.47
2023-01-05T12:49:35.301Z,9.45
2023-01-05T12:52:20.650Z,6.73
2023-01-05T12:54:59.982Z,7.60
2023-01-05T12:57:33.638Z,7.80
2023-01-05T13:00:07.983Z,7.90
2023-01-05T13:02:41.431Z,7.70
2023-01-05T13:05:19.627Z,6.85
2023-01-05T13:10:27.760Z,7.53
2023-01-05T13:13:19.453Z,6.67
2023-01-05T13:15:52.746Z,6.57
2023-01-05T13:18:24.199Z,5.77
2023-01-05T13:20:57.722Z,6.20
2023-01-05T13:23:47.176Z,6.57
2023-01-05T13:26:20.082Z,6.20
2023-01-05T13:39:00.083Z,8.00
2023-01-05T13:41:48.898Z,7.65
2023-01-05T13:44:33.838Z,6.23
2023-01-05T13:47:45.896Z,7.50
2023-01-05T13:50:35.109Z,7.33
2023-01-05T13:53:18.428Z,7.17
2023-01-05T13:56:17.415Z,7.72
2023-01-05T13:58:52.692Z,7.60
2023-01-05T14:13:59.671Z,7.43
2023-01-05T14:16:36.041Z,7.57
2023-01-05T14:19:21.854Z,7.27
2023-01-05T14:21:51.584Z,6.73
2023-01-05T14:27:11.675Z,6.20
2023-01-05T14:29:44.930Z,5.83
2023-01-05T14:32:15.124Z,5.83
2023-01-05T14:34:50.740Z,6.97
2023-01-05T14:37:37.394Z,5.97
2023-01-05T14:40:30.608Z,6.10
2023-01-05T14:42:59.365Z,6.17
2023-01-05T14:45:32.096Z,6.50
2023-01-05T14:48:03.378Z,6.23
2023-01-05T14:50:41.642Z,7.60
2023-01-05T14:53:34.726Z,6.70
2023-01-05T14:56:01.523Z,5.63
2023-01-05T14:58:37.487Z,6.67
2023-01-05T15:01:16.327Z,7.20
2023-01-05T15:03:58.300Z,7.13
2023-01-05T15:06:28.234Z,6.47
2023-01-05T15:09:16.404Z,7.17
2023-01-05T15:12:17.425Z,7.13
2023-01-05T15:15:06.048Z,7.30
2023-01-05T15:17:52.353Z,7.27
2023-01-05T15:20:50.507Z,7.03
2023-01-05T15:23:51.223Z,6.97
2023-01-05T15:26:37.030Z,7.53
2023-01-05T15:29:15.671Z,6.83
2023-01-05T15:31:56.620Z,7.33
2023-01-05T15:34:34.739Z,7.17
2023-01-05T15:37:21.828Z,6.83
2023-01-05T15:39:56.730Z,7.83
2023-01-05T15:42:45.939Z,7.67
2023-01-05T15:45:39.527Z,8.10
2023-01-05T15:48:14.311Z,7.40
2023-01-05T15:50:53.659Z,8.33
2023-01-05T15:53:30.754Z,7.47
2023-01-05T15:55:58.503Z,8.00
2023-01-05T15:58:27.815Z,9.03
2023-01-05T16:01:08.136Z,8.73
2023-01-05T16:03:37.580Z,7.77
2023-01-05T16:06:27.536Z,8.17
2023-01-05T16:09:00.123Z,8.20
2023-01-05T16:11:31.909Z,8.20
2023-01-05T16:14:10.682Z,8.07
2023-01-05T16:16:53.962Z,8.80
2023-01-05T16:19:36.292Z,8.57
2023-01-05T16:22:25.327Z,7.83
2023-01-05T16:25:04.340Z,8.57
2023-01-05T16:27:40.475Z,9.23
2023-01-05T16:30:29.030Z,18.60
2023-01-05T16:33:11.475Z,11.90
2023-01-05T16:35:50.305Z,11.20
2023-01-05T16:38:27.799Z,11.33
2023-01-05T16:41:19.339Z,15.30
2023-01-05T16:44:01.078Z,12.37
2023-01-05T16:46:35.383Z,12.70
2023-01-05T16:49:21.207Z,10.20
2023-01-05T16:51:48.222Z,13.73
2023-01-05T16:54:22.169Z,12.43
2023-01-05T16:56:51.274Z,9.90
2023-01-05T16:59:52.418Z,9.87
2023-01-05T17:02:41.033Z,9.67
2023-01-05T17:05:08.712Z,9.70
2023-01-05T17:07:39.163Z,9.50
2023-01-05T17:10:19.504Z,8.70
2023-01-05T17:12:52.275Z,9.17
2023-01-05T17:15:24.482Z,10.30
2023-01-05T17:17:54.808Z,10.43
2023-01-05T17:20:27.407Z,19.00
2023-01-05T17:22:55.898Z,22.07
2023-01-05T17:25:25.671Z,10.20
2023-01-05T17:27:52.554Z,13.20
2023-01-05T17:30:21.216Z,9.83
2023-01-05T17:32:48.123Z,9.23
2023-01-05T17:35:17.191Z,10.57
2023-01-05T17:37:46.878Z,10.33
2023-01-05T17:40:18.898Z,9.47
2023-01-05T17:42:46.569Z,10.13
2023-01-05T17:45:20.945Z,11.47
2023-01-05T17:47:48.551Z,10.77
2023-01-05T17:50:18.593Z,10.47
2023-01-05T17:52:45.896Z,10.77
2023-01-05T17:55:13.320Z,10.10
2023-01-05T17:57:40.423Z,8.93
2023-01-05T18:00:11.001Z,9.93
2023-01-05T18:02:37.989Z,15.70
2023-01-05T18:05:05.468Z,12.33
2023-01-05T18:07:32.957Z,20.63
2023-01-05T18:10:00.255Z,29.00
2023-01-05T18:12:28.085Z,14.63
2023-01-05T18:14:55.396Z,9.83
2023-01-05T18:17:22.784Z,17.77
2023-01-05T18:19:49.607Z,20.50
2023-01-05T18:22:17.049Z,26.63
2023-01-05T18:24:44.139Z,15.67
2023-01-05T18:27:11.932Z,17.37
2023-01-05T18:29:39.830Z,14.73
2023-01-05T18:32:08.097Z,16.07
2023-01-05T18:34:35.578Z,15.37
2023-01-05T18:37:06.663Z,15.10
2023-01-05T18:39:37.965Z,15.53
2023-01-05T18:42:04.879Z,15.57
2023-01-05T18:44:31.759Z,16.87
2023-01-05T18:46:58.632Z,17.13
2023-01-05T18:49:25.449Z,21.33
2023-01-05T18:51:53.295Z,17.03
2023-01-05T18:54:20.660Z,17.20
2023-01-05T18:56:47.651Z,16.80
2023-01-05T18:59:15.324Z,17.10
2023-01-05T19:01:43.237Z,17.90
2023-01-05T19:04:15.732Z,17.10
2023-01-05T19:06:43.125Z,23.87
2023-01-05T19:09:11.936Z,20.53
2023-01-05T19:11:43.333Z,21.97
2023-01-05T19:14:10.600Z,19.70
2023-01-05T19:16:37.619Z,22.77
2023-01-05T19:19:09.290Z,23.20
2023-01-05T19:21:39.476Z,24.40
2023-01-05T19:24:08.299Z,30.13
2023-01-05T19:26:36.546Z,19.43
2023-01-05T19:29:06.354Z,19.83
2023-01-05T19:31:34.452Z,18.40
2023-01-05T19:34:01.379Z,18.67
2023-01-05T19:36:32.472Z,18.00
2023-01-05T19:39:01.669Z,18.53
2023-01-05T19:41:30.107Z,17.23
2023-01-05T19:43:57.931Z,17.40
2023-01-05T19:46:27.748Z,17.03
2023-01-05T19:48:56.494Z,16.73
2023-01-05T19:51:28.041Z,17.33
2023-01-05T19:53:56.594Z,17.90
2023-01-05T19:56:25.882Z,17.77
2023-01-05T19:58:56.209Z,17.57
2023-01-05T20:01:24.541Z,18.57
2023-01-05T20:03:53.660Z,16.50
2023-01-05T20:06:27.306Z,17.00
2023-01-05T20:08:59.186Z,15.10
2023-01-05T20:11:36.693Z,16.03
2023-01-05T20:14:13.008Z,15.07
2023-01-05T20:16:46.241Z,15.30
2023-01-05T20:19:13.716Z,14.50
2023-01-05T20:21:40.650Z,14.13
2023-01-05T20:24:11.829Z,15.03
2023-01-05T20:26:39.632Z,13.40
2023-01-05T20:29:07.051Z,14.03
2023-01-05T20:31:37.938Z,14.13
2023-01-05T20:34:09.741Z,14.10
2023-01-05T20:36:36.957Z,12.73
2023-01-05T20:39:06.562Z,13.77
2023-01-05T20:41:37.076Z,13.43
2023-01-05T20:44:04.521Z,12.20
2023-01-05T20:46:40.151Z,12.83
2023-01-05T20:49:07.306Z,13.13
2023-01-05T20:51:35.290Z,14.67
2023-01-05T20:54:02.685Z,14.33
2023-01-05T20:56:33.562Z,14.10
2023-01-05T20:59:00.724Z,15.43
2023-01-05T21:01:27.823Z,15.10
2023-01-05T21:03:54.935Z,16.67
2023-01-05T21:06:22.023Z,16.70
2023-01-05T21:08:50.914Z,16.20
2023-01-05T21:11:22.882Z,17.07
2023-01-05T21:13:50.602Z,18.17
2023-01-05T21:16:21.198Z,18.27
2023-01-05T21:18:48.718Z,18.03
2023-01-05T21:21:18.313Z,18.37
2023-01-05T21:23:47.227Z,18.50
2023-01-05T21:26:14.638Z,21.20
2023-01-05T21:28:44.074Z,19.00
2023-01-05T21:31:16.001Z,20.43
2023-01-05T21:33:43.516Z,20.60
2023-01-05T21:36:17.068Z,21.53
2023-01-05T21:39:01.883Z,21.67
2023-01-05T21:41:50.541Z,21.53
2023-01-05T21:44:18.579Z,21.67
2023-01-05T21:46:46.014Z,23.07
2023-01-05T21:49:14.436Z,22.97
2023-01-05T21:52:00.281Z,24.33
2023-01-05T21:54:46.157Z,23.70
2023-01-05T21:57:13.697Z,25.57
2023-01-05T21:59:41.117Z,24.00
2023-01-05T22:02:08.576Z,24.57
2023-01-05T22:04:35.832Z,23.23
2023-01-05T22:07:07.182Z,25.67
2023-01-05T22:09:35.335Z,23.90
2023-01-05T22:12:02.854Z,24.47
2023-01-05T22:14:29.702Z,24.77
2023-01-05T22:16:56.687Z,23.47
2023-01-05T22:19:23.631Z,24.00
2023-01-05T22:21:50.636Z,24.37
2023-01-05T22:24:17.526Z,24.23
2023-01-05T22:26:44.372Z,23.07
2023-01-05T22:29:11.246Z,27.47
2023-01-05T22:31:38.043Z,23.47
2023-01-05T22:34:05.290Z,23.13
2023-01-05T22:36:32.257Z,22.63
2023-01-05T22:39:00.731Z,22.07
2023-01-05T22:41:30.786Z,22.40
2023-01-05T22:43:58.519Z,22.10
2023-01-05T22:46:27.570Z,22.10
2023-01-05T22:48:56.378Z,22.47
2023-01-05T22:51:26.486Z,21.10
2023-01-05T22:53:53.814Z,20.07
2023-01-05T22:56:22.486Z,20.63
2023-01-05T22:58:49.996Z,20.13
2023-01-05T23:01:23.518Z,19.67
2023-01-05T23:03:51.850Z,20.20
2023-01-05T23:06:19.969Z,19.00
2023-01-05T23:08:48.299Z,18.63
2023-01-05T23:11:22.017Z,19.30
2023-01-05T23:13:50.031Z,18.60
2023-01-05T23:16:17.377Z,18.30
2023-01-05T23:18:44.668Z,18.93
2023-01-05T23:21:13.749Z,17.43
2023-01-05T23:23:41.073Z,18.17
2023-01-05T23:26:09.527Z,16.93
2023-01-05T23:28:36.876Z,16.27
2023-01-05T23:31:04.873Z,16.00
2023-01-05T23:33:36.625Z,14.43
2023-01-05T23:36:04.997Z,13.23
2023-01-05T23:38:33.933Z,12.77
2023-01-05T23:41:06.025Z,12.47
2023-01-05T23:43:34.018Z,10.73
2023-01-05T23:46:21.244Z,10.20
2023-01-05T23:48:49.752Z,10.23
2023-01-05T23:51:17.408Z,9.13
2023-01-05T23:53:50.499Z,8.97
2023-01-05T23:56:23.094Z,8.20
2023-01-05T23:59:04.393Z,7.63
